Time;durP1;ratioP1;P1;durP2;ratioP2;P2;SDS_P1;SDS_P2;PMS_P1;PMS_P2;Temp;Humidity;BMP_temperature;BMP_pressure;BME280_temperature;BME280_humidity;BME280_pressure;Samples;Min_cycle;Max_cycle;Signal;HPM_P1;HPM_P2
2023/09/06 00:00:43;;;;;;;7.72;2.80;;;17.40;44.80;;;;;;5027618;28;20465;-76
2023/09/06 00:03:10;;;;;;;8.30;3.38;;;17.30;99.90;;;;;;5026223;28;20421;-76
2023/09/06 00:05:41;;;;;;;7.18;2.60;;;17.40;99.90;;;;;;5021075;28;20383;-76
2023/09/06 00:08:08;;;;;;;7.60;3.05;;;17.30;40.50;;;;;;5028431;28;21023;-76
2023/09/06 00:10:38;;;;;;;9.80;2.65;;;17.20;1.00;;;;;;5028393;28;20391;-76
2023/09/06 00:13:06;;;;;;;8.48;2.85;;;17.10;1.00;;;;;;5028972;28;20755;-75
2023/09/06 00:15:31;;;;;;;6.75;2.88;;;17.10;1.00;;;;;;5028287;28;20897;-76
2023/09/06 00:17:57;;;;;;;7.78;3.10;;;16.90;99.90;;;;;;5028102;28;20390;-76
2023/09/06 00:20:26;;;;;;;7.22;2.47;;;16.90;99.90;;;;;;5027389;28;20399;-76
2023/09/06 00:22:59;;;;;;;7.45;2.90;;;16.80;99.90;;;;;;5026650;28;20383;-76
2023/09/06 00:25:26;;;;;;;8.05;2.78;;;16.70;1.00;;;;;;5032821;28;20399;-76
2023/09/06 00:27:52;;;;;;;8.23;2.90;;;16.50;1.00;;;;;;5029480;28;20526;-76
2023/09/06 00:30:18;;;;;;;10.40;3.05;;;16.40;97.30;;;;;;5027843;28;20529;-76
2023/09/06 00:32:45;;;;;;;8.57;3.42;;;16.20;99.90;;;;;;5030297;28;20449;-76
2023/09/06 00:35:11;;;;;;;6.85;2.80;;;16.20;99.90;;;;;;5030212;28;20746;-76
2023/09/06 00:37:40;;;;;;;7.93;3.42;;;16.30;99.90;;;;;;5025667;28;20383;-76
2023/09/06 00:40:17;;;;;;;9.05;3.17;;;16.20;99.90;;;;;;5028381;28;20411;-76
2023/09/06 00:42:46;;;;;;;9.27;2.67;;;16.10;99.90;;;;;;5027806;28;20842;-76
2023/09/06 00:45:12;;;;;;;7.22;2.70;;;16.10;99.90;;;;;;5028318;28;20383;-76
2023/09/06 00:47:37;;;;;;;7.10;2.90;;;16.00;99.90;;;;;;5028070;28;20910;-76
2023/09/06 00:50:04;;;;;;;8.55;2.67;;;16.00;99.90;;;;;;5019155;28;20504;-76
2023/09/06 00:52:30;;;;;;;8.85;2.92;;;16.00;99.90;;;;;;5027563;28;20403;-76
2023/09/06 00:55:00;;;;;;;9.18;3.38;;;15.90;99.90;;;;;;5027713;28;20468;-78
2023/09/06 00:57:29;;;;;;;6.80;2.80;;;15.80;99.90;;;;;;5028886;28;20403;-78
2023/09/06 00:59:58;;;;;;;10.38;4.07;;;15.90;99.90;;;;;;5033756;28;20398;-79
2023/09/06 01:02:24;;;;;;;9.35;2.88;;;15.90;99.90;;;;;;5032490;28;20395;-78
2023/09/06 01:04:50;;;;;;;8.82;3.20;;;15.80;99.90;;;;;;5032764;28;20395;-78
2023/09/06 01:07:17;;;;;;;8.18;2.90;;;15.80;1.00;;;;;;5031334;28;20450;-78
2023/09/06 01:09:43;;;;;;;8.35;3.05;;;15.80;99.90;;;;;;5031549;28;20421;-78
2023/09/06 01:12:12;;;;;;;8.48;3.60;;;15.70;1.00;;;;;;5031949;28;20407;-78
2023/09/06 01:14:39;;;;;;;8.20;3.45;;;15.80;1.00;;;;;;5027437;28;20425;-78
2023/09/06 01:17:06;;;;;;;11.10;3.10;;;15.90;99.90;;;;;;5030289;28;20435;-78
2023/09/06 01:19:34;;;;;;;7.80;2.65;;;15.90;99.90;;;;;;5030411;28;20448;-78
2023/09/06 01:22:22;;;;;;;7.10;3.20;;;15.80;99.90;;;;;;5027549;28;20407;-78
2023/09/06 01:24:49;;;;;;;9.98;4.15;;;15.70;99.90;;;;;;5029591;28;20407;-78
2023/09/06 01:27:15;;;;;;;8.05;2.75;;;15.70;99.90;;;;;;5030881;28;20438;-78
2023/09/06 01:29:41;;;;;;;8.40;3.50;;;15.70;99.90;;;;;;5028658;28;20406;-78
2023/09/06 01:32:07;;;;;;;7.77;2.93;;;15.50;99.90;;;;;;5031508;28;20514;-78
2023/09/06 01:34:32;;;;;;;8.57;3.55;;;15.50;1.00;;;;;;5029443;28;20901;-78
2023/09/06 01:36:58;;;;;;;8.60;3.20;;;15.50;99.90;;;;;;5031262;28;20414;-78
2023/09/06 01:39:23;;;;;;;7.10;2.60;;;15.40;99.90;;;;;;5031573;28;20770;-78
2023/09/06 01:41:58;;;;;;;7.30;2.90;;;15.30;99.90;;;;;;5031466;28;20415;-78
2023/09/06 01:44:23;;;;;;;8.90;3.43;;;15.30;1.00;;;;;;5027600;28;20482;-78
2023/09/06 01:46:49;;;;;;;11.65;4.20;;;15.20;1.00;;;;;;5031298;28;20422;-78
2023/09/06 01:49:14;;;;;;;7.97;3.30;;;15.20;1.00;;;;;;5031531;28;20400;-78
2023/09/06 01:51:40;;;;;;;8.80;3.43;;;15.20;1.00;;;;;;5031402;28;21072;-78
2023/09/06 01:54:07;;;;;;;10.83;3.50;;;15.20;1.00;;;;;;5031158;28;20747;-78
2023/09/06 01:56:33;;;;;;;13.10;3.53;;;15.20;1.00;;;;;;5005359;28;20501;-78
2023/09/06 01:58:58;;;;;;;10.90;3.83;;;15.20;1.00;;;;;;5030350;28;20495;-78
2023/09/06 02:01:24;;;;;;;8.18;2.90;;;15.20;1.00;;;;;;5030966;28;20387;-78
2023/09/06 02:03:49;;;;;;;9.63;3.83;;;15.20;1.00;;;;;;5030967;28;20395;-79
2023/09/06 02:06:15;;;;;;;7.40;3.00;;;15.20;1.00;;;;;;5030971;28;20941;-78
2023/09/06 02:08:40;;;;;;;8.20;3.30;;;15.10;1.00;;;;;;5030345;28;20415;-78
2023/09/06 02:11:06;;;;;;;8.68;3.25;;;15.10;1.00;;;;;;5028619;28;20415;-78
2023/09/06 02:13:32;;;;;;;9.73;3.30;;;15.00;1.00;;;;;;5027087;28;20438;-78
2023/09/06 02:16:01;;;;;;;9.90;4.35;;;15.00;1.00;;;;;;5029652;28;20406;-78
2023/09/06 02:18:27;;;;;;;11.25;3.95;;;15.00;1.00;;;;;;5026715;28;20416;-78
2023/09/06 02:20:55;;;;;;;9.10;3.60;;;15.20;1.00;;;;;;5030815;28;20419;-78
2023/09/06 02:23:21;;;;;;;8.77;4.10;;;15.20;1.00;;;;;;5028679;28;20407;-78
2023/09/06 02:25:47;;;;;;;8.17;3.60;;;15.30;1.00;;;;;;5029562;28;20395;-78
2023/09/06 02:28:14;;;;;;;8.60;3.67;;;15.40;1.00;;;;;;5029830;28;20446;-78
2023/09/06 02:30:41;;;;;;;7.45;3.33;;;15.30;1.00;;;;;;5028822;28;20829;-78
2023/09/06 02:33:14;;;;;;;8.57;3.45;;;15.40;1.00;;;;;;5029418;28;20731;-78
2023/09/06 02:35:40;;;;;;;9.68;3.35;;;15.50;99.90;;;;;;5030600;28;20390;-78
2023/09/06 02:38:11;;;;;;;8.02;4.00;;;15.40;99.90;;;;;;5030257;28;20482;-78
2023/09/06 02:40:37;;;;;;;9.38;3.67;;;15.50;99.90;;;;;;5030944;28;20445;-78
2023/09/06 02:43:04;;;;;;;8.05;3.20;;;15.40;99.90;;;;;;5038891;28;20412;-78
2023/09/06 02:45:36;;;;;;;9.57;3.55;;;15.40;99.90;;;;;;5050742;28;20392;-78
2023/09/06 02:48:06;;;;;;;10.00;3.80;;;15.30;99.90;;;;;;5030730;28;20431;-78
2023/09/06 02:50:34;;;;;;;8.45;3.40;;;15.30;99.90;;;;;;5028280;28;20788;-78
2023/09/06 02:53:01;;;;;;;11.17;3.90;;;15.30;99.90;;;;;;5030352;28;20399;-78
2023/09/06 02:55:27;;;;;;;7.25;2.95;;;15.30;99.90;;;;;;5030413;28;20498;-78
2023/09/06 02:57:54;;;;;;;10.35;3.90;;;15.20;99.90;;;;;;5030648;28;20549;-78
2023/09/06 03:00:24;;;;;;;9.43;3.78;;;15.20;99.90;;;;;;5030420;28;20473;-78
2023/09/06 03:02:52;;;;;;;9.75;3.70;;;15.20;99.90;;;;;;5028143;28;20935;-78
2023/09/06 03:05:17;;;;;;;8.50;3.28;;;15.20;99.90;;;;;;5029581;28;20446;-78
2023/09/06 03:07:50;;;;;;;9.20;3.95;;;15.10;99.90;;;;;;5029987;28;20478;-78
2023/09/06 03:10:20;;;;;;;9.23;3.70;;;15.00;99.90;;;;;;5011582;28;20510;-78
2023/09/06 03:12:47;;;;;;;10.48;3.60;;;14.90;1.00;;;;;;5026898;28;20460;-78
2023/09/06 03:15:14;;;;;;;8.63;3.65;;;14.80;1.00;;;;;;5029035;28;20407;-78
2023/09/06 03:17:39;;;;;;;9.57;3.90;;;14.80;1.00;;;;;;5028204;28;20402;-78
2023/09/06 03:20:19;;;;;;;9.87;3.70;;;14.70;1.00;;;;;;5027840;28;21205;-77
2023/09/06 03:22:47;;;;;;;8.23;3.45;;;14.70;1.00;;;;;;5030011;28;20391;-78
2023/09/06 03:25:14;;;;;;;9.13;3.60;;;14.70;1.00;;;;;;5020548;28;20421;-78
2023/09/06 03:27:41;;;;;;;9.73;3.88;;;14.70;1.00;;;;;;5028178;28;20475;-78
2023/09/06 03:30:08;;;;;;;10.38;3.40;;;14.60;1.00;;;;;;5025908;28;20408;-78
2023/09/06 03:32:34;;;;;;;10.70;3.72;;;14.60;1.00;;;;;;5029304;28;20410;-78
2023/09/06 03:35:00;;;;;;;9.10;3.60;;;14.60;1.00;;;;;;5023269;28;20423;-78
2023/09/06 03:37:28;;;;;;;8.80;3.50;;;14.60;1.00;;;;;;5018762;28;20429;-78
2023/09/06 03:39:54;;;;;;;8.00;3.70;;;14.60;1.00;;;;;;5023739;28;20487;-78
2023/09/06 03:42:20;;;;;;;8.75;3.30;;;14.60;1.00;;;;;;5028664;28;20415;-78
2023/09/06 03:44:46;;;;;;;9.18;3.45;;;14.70;1.00;;;;;;5029050;28;20498;-78
2023/09/06 03:47:15;;;;;;;8.75;3.13;;;14.70;1.00;;;;;;5029456;28;20793;-78
2023/09/06 03:49:41;;;;;;;9.73;4.00;;;14.60;99.90;;;;;;5027500;28;20399;-78
2023/09/06 03:52:07;;;;;;;10.60;3.73;;;14.50;1.00;;;;;;5028156;28;20403;-78
2023/09/06 03:54:34;;;;;;;9.30;3.80;;;14.70;99.90;;;;;;5030763;28;20438;-78
2023/09/06 03:57:01;;;;;;;9.20;3.57;;;14.70;99.90;;;;;;5026114;28;20766;-78
2023/09/06 03:59:27;;;;;;;9.17;3.37;;;14.60;1.00;;;;;;5028971;28;20408;-78
2023/09/06 04:01:55;;;;;;;8.82;3.80;;;14.60;1.00;;;;;;5021406;28;20457;-78
2023/09/06 04:04:21;;;;;;;9.32;4.35;;;14.60;99.90;;;;;;5027227;28;20462;-77
2023/09/06 04:06:47;;;;;;;9.00;3.57;;;14.60;99.90;;;;;;5026480;28;20418;-77
2023/09/06 04:09:18;;;;;;;9.65;3.47;;;14.60;99.90;;;;;;5028970;28;20997;-77
2023/09/06 04:11:43;;;;;;;13.48;3.78;;;14.50;1.00;;;;;;5029367;28;20454;-77
2023/09/06 04:14:09;;;;;;;10.20;3.70;;;14.40;1.00;;;;;;5029753;28;20423;-76
2023/09/06 04:16:37;;;;;;;10.10;3.70;;;14.20;1.00;;;;;;5029380;28;20448;-77
2023/09/06 04:19:03;;;;;;;15.80;4.20;;;14.00;1.00;;;;;;5028795;28;20461;-77
2023/09/06 04:21:28;;;;;;;8.70;3.58;;;13.90;1.00;;;;;;5031094;28;20387;-77
2023/09/06 04:23:55;;;;;;;10.57;4.33;;;13.80;1.00;;;;;;5020539;28;20417;-77
2023/09/06 04:26:20;;;;;;;9.57;3.93;;;14.00;1.00;;;;;;5009756;28;20419;-75
2023/09/06 04:28:46;;;;;;;9.43;3.85;;;14.00;1.00;;;;;;5018291;28;20774;-75
2023/09/06 04:31:11;;;;;;;8.63;4.10;;;14.10;1.00;;;;;;5029349;28;20402;-74
2023/09/06 04:33:37;;;;;;;11.73;4.10;;;14.20;1.00;;;;;;5031460;28;20422;-75
2023/09/06 04:36:04;;;;;;;11.00;4.20;;;14.20;1.00;;;;;;5031913;28;20414;-74
2023/09/06 04:38:31;;;;;;;8.80;3.70;;;14.20;1.00;;;;;;5031451;28;20407;-74
2023/09/06 04:40:56;;;;;;;9.90;4.20;;;14.20;1.00;;;;;;5033080;28;20398;-74
2023/09/06 04:43:22;;;;;;;8.47;3.70;;;14.20;1.00;;;;;;5032609;28;20402;-74
2023/09/06 04:45:49;;;;;;;9.70;3.70;;;14.20;1.00;;;;;;5028524;28;20431;-77
2023/09/06 04:48:18;;;;;;;8.65;3.50;;;14.20;1.00;;;;;;5016277;28;20797;-76
2023/09/06 04:50:45;;;;;;;9.43;4.25;;;14.20;1.00;;;;;;5029760;28;20427;-76
2023/09/06 04:53:12;;;;;;;10.85;4.05;;;14.20;1.00;;;;;;5028423;28;20414;-76
2023/09/06 04:55:39;;;;;;;9.85;4.60;;;14.10;1.00;;;;;;5031250;28;20469;-76
2023/09/06 04:58:07;;;;;;;9.23;3.90;;;14.10;1.00;;;;;;5032543;28;20695;-76
2023/09/06 05:00:38;;;;;;;8.30;4.13;;;14.10;1.00;;;;;;5034781;28;20393;-76
2023/09/06 05:03:10;;;;;;;10.50;3.97;;;14.20;1.00;;;;;;5047369;28;20466;-76
2023/09/06 05:05:40;;;;;;;8.70;3.50;;;14.20;1.00;;;;;;5033987;28;20742;-77
2023/09/06 05:08:06;;;;;;;10.83;3.70;;;14.10;1.00;;;;;;5031065;28;20765;-76
2023/09/06 05:10:32;;;;;;;10.30;4.50;;;14.10;1.00;;;;;;5013634;28;20424;-76
2023/09/06 05:12:58;;;;;;;9.65;3.72;;;14.30;1.00;;;;;;5030644;28;20547;-77
2023/09/06 05:15:24;;;;;;;10.27;3.60;;;14.40;1.00;;;;;;5031703;28;20399;-77
2023/09/06 05:17:50;;;;;;;12.30;4.38;;;14.40;1.00;;;;;;5033288;28;20432;-77
2023/09/06 05:20:25;;;;;;;12.00;5.07;;;14.40;1.00;;;;;;5033900;28;20387;-77
2023/09/06 05:22:51;;;;;;;11.15;3.90;;;14.50;1.00;;;;;;5031168;28;21008;-77
2023/09/06 05:25:17;;;;;;;9.90;3.80;;;14.50;1.00;;;;;;5027801;28;20582;-77
2023/09/06 05:27:43;;;;;;;8.90;4.00;;;14.50;1.00;;;;;;5031833;28;20423;-76
2023/09/06 05:30:08;;;;;;;10.48;3.97;;;14.50;1.00;;;;;;5031935;28;20873;-77
2023/09/06 05:32:34;;;;;;;11.43;4.40;;;14.60;1.00;;;;;;5030310;28;20417;-77
2023/09/06 05:34:59;;;;;;;8.90;4.07;;;14.60;1.00;;;;;;5026419;28;20901;-76
2023/09/06 05:37:25;;;;;;;11.87;4.10;;;14.70;1.00;;;;;;5013490;28;20418;-77
2023/09/06 05:39:51;;;;;;;9.40;3.97;;;14.90;1.00;;;;;;5029981;28;20974;-76
2023/09/06 05:42:17;;;;;;;10.77;3.90;;;15.00;1.00;;;;;;5030409;28;20427;-76
2023/09/06 05:44:43;;;;;;;10.20;4.30;;;15.10;1.00;;;;;;5029439;28;20407;-76
2023/09/06 05:47:08;;;;;;;8.27;3.50;;;15.20;1.00;;;;;;5030898;28;20427;-77
2023/09/06 05:49:35;;;;;;;9.50;4.68;;;15.30;1.00;;;;;;5021892;28;20810;-76
2023/09/06 05:52:02;;;;;;;11.13;4.50;;;15.50;1.00;;;;;;5026919;28;20411;-76
2023/09/06 05:54:27;;;;;;;10.07;4.68;;;15.60;99.90;;;;;;5029606;28;20423;-76
2023/09/06 05:56:53;;;;;;;10.43;3.83;;;15.70;99.90;;;;;;5030080;28;20913;-76
2023/09/06 05:59:19;;;;;;;11.40;4.87;;;15.90;99.90;;;;;;5030789;28;20411;-76
2023/09/06 06:01:45;;;;;;;11.90;4.60;;;16.00;99.90;;;;;;5010663;28;20430;-76
2023/09/06 06:04:11;;;;;;;12.97;6.63;;;16.10;99.90;;;;;;5033310;28;20524;-75
2023/09/06 06:06:37;;;;;;;12.55;5.60;;;16.50;99.90;;;;;;5037660;28;20405;-75
2023/09/06 06:09:04;;;;;;;12.75;4.60;;;17.40;99.90;;;;;;5015084;28;20419;-76
2023/09/06 06:11:30;;;;;;;11.05;4.57;;;19.10;99.90;;;;;;5018845;28;20792;-77
2023/09/06 06:13:55;;;;;;;13.07;5.20;;;20.60;1.00;;;;;;5037960;28;20405;-76
2023/09/06 06:16:21;;;;;;;10.73;4.30;;;22.30;18.30;;;;;;5035011;28;20419;-75
2023/09/06 06:18:50;;;;;;;10.47;4.77;;;23.90;1.00;;;;;;5031284;28;20885;-76
2023/09/06 06:21:15;;;;;;;10.20;4.00;;;25.00;99.90;;;;;;5030722;28;20498;-77
2023/09/06 06:23:46;;;;;;;13.43;4.95;;;26.30;99.90;;;;;;5031549;28;20486;-78
2023/09/06 06:26:12;;;;;;;8.05;3.95;;;27.10;99.90;;;;;;5028790;28;20423;-77
2023/09/06 06:28:37;;;;;;;10.05;4.60;;;27.30;99.90;;;;;;5027411;28;20418;-78
2023/09/06 06:31:02;;;;;;;11.68;4.78;;;27.40;99.90;;;;;;5030920;28;20395;-76
2023/09/06 06:33:28;;;;;;;9.80;4.60;;;28.20;99.90;;;;;;5030925;28;20383;-76
2023/09/06 06:35:54;;;;;;;14.33;4.80;;;28.90;99.90;;;;;;5030439;28;20904;-76
2023/09/06 06:38:20;;;;;;;10.67;4.20;;;28.80;99.90;;;;;;5031225;28;20391;-76
2023/09/06 06:40:45;;;;;;;12.23;5.20;;;28.90;99.90;;;;;;5031904;28;20395;-76
2023/09/06 06:43:12;;;;;;;9.05;4.32;;;30.10;99.90;;;;;;5012905;28;20419;-76
2023/09/06 06:45:37;;;;;;;9.90;4.80;;;30.40;99.90;;;;;;5030635;28;20371;-76
2023/09/06 06:48:03;;;;;;;10.37;5.10;;;30.20;99.90;;;;;;5013042;28;20427;-76
2023/09/06 06:50:39;;;;;;;11.45;4.82;;;31.00;99.90;;;;;;5029399;28;20457;-76
2023/09/06 06:53:04;;;;;;;10.48;4.78;;;31.40;99.90;;;;;;5029805;28;20457;-75
2023/09/06 06:55:30;;;;;;;9.88;4.22;;;30.80;99.90;;;;;;5029021;28;20890;-76
2023/09/06 06:57:55;;;;;;;10.23;4.30;;;30.90;99.90;;;;;;5030011;28;20395;-76
2023/09/06 07:00:21;;;;;;;9.43;4.60;;;32.20;99.90;;;;;;5013108;28;20580;-76
2023/09/06 07:02:47;;;;;;;10.77;4.47;;;32.20;99.90;;;;;;5029830;28;20395;-76
2023/09/06 07:05:12;;;;;;;9.82;4.60;;;32.00;99.90;;;;;;5029629;28;20383;-76
2023/09/06 07:07:38;;;;;;;9.07;3.73;;;32.10;99.90;;;;;;5030006;28;20464;-76
2023/09/06 07:10:06;;;;;;;7.78;3.22;;;32.00;99.90;;;;;;5029882;28;20429;-76
2023/09/06 07:12:31;;;;;;;9.52;4.38;;;30.30;99.90;;;;;;5029751;28;20375;-76
2023/09/06 07:14:58;;;;;;;10.23;4.05;;;29.90;99.90;;;;;;5029838;28;20492;-76
2023/09/06 07:17:23;;;;;;;10.43;4.30;;;30.20;99.90;;;;;;5028827;28;20451;-76
2023/09/06 07:19:49;;;;;;;9.93;4.40;;;30.70;99.90;;;;;;5000799;28;20414;-76
2023/09/06 07:22:15;;;;;;;10.57;4.10;;;30.60;99.90;;;;;;5011858;28;20390;-78
2023/09/06 07:24:40;;;;;;;9.87;4.53;;;30.40;99.90;;;;;;5030062;28;20375;-76
2023/09/06 07:27:06;;;;;;;9.40;4.72;;;31.20;99.90;;;;;;5029507;28;20825;-77
2023/09/06 07:29:32;;;;;;;11.37;4.10;;;31.80;99.90;;;;;;5029558;28;20874;-76
2023/09/06 07:31:58;;;;;;;9.33;3.90;;;32.50;99.90;;;;;;5030503;28;20739;-78
2023/09/06 07:34:24;;;;;;;8.90;3.92;;;32.50;99.90;;;;;;5029799;28;20391;-78
2023/09/06 07:36:50;;;;;;;10.27;4.50;;;32.70;99.90;;;;;;5029960;28;20395;-78
2023/09/06 07:39:17;;;;;;;11.63;4.63;;;32.50;99.90;;;;;;5029515;28;20391;-78
2023/09/06 07:41:44;;;;;;;9.02;4.50;;;32.50;99.90;;;;;;5011728;28;20409;-78
2023/09/06 07:44:09;;;;;;;8.50;4.40;;;32.30;99.90;;;;;;5029557;28;20766;-78
2023/09/06 07:46:35;;;;;;;8.82;3.83;;;32.90;99.90;;;;;;5010645;28;20431;-76
2023/09/06 07:49:00;;;;;;;9.37;4.07;;;32.20;99.90;;;;;;5029031;28;20480;-76
2023/09/06 07:51:26;;;;;;;10.60;4.27;;;31.70;99.90;;;;;;5024013;28;20412;-77
2023/09/06 07:53:51;;;;;;;11.90;4.60;;;31.90;99.90;;;;;;5018281;28;20394;-77
2023/09/06 07:56:17;;;;;;;9.63;3.77;;;32.00;99.90;;;;;;5027732;28;20418;-76
2023/09/06 07:58:42;;;;;;;9.70;4.03;;;31.30;99.90;;;;;;5028895;28;20490;-76
2023/09/06 08:01:08;;;;;;;8.87;4.03;;;31.80;99.90;;;;;;5028419;28;20403;-76
2023/09/06 08:03:34;;;;;;;9.93;4.00;;;32.70;99.90;;;;;;5027590;28;20497;-76
2023/09/06 08:05:59;;;;;;;9.18;3.97;;;33.00;99.90;;;;;;5028860;28;20921;-76
2023/09/06 08:08:25;;;;;;;9.20;4.20;;;33.80;99.90;;;;;;5029370;28;20434;-77
2023/09/06 08:10:51;;;;;;;10.37;4.60;;;34.80;99.90;;;;;;5030148;28;20387;-76
2023/09/06 08:13:16;;;;;;;10.00;3.60;;;34.00;99.90;;;;;;5026268;28;20899;-76
2023/09/06 08:15:42;;;;;;;9.38;4.00;;;33.70;99.90;;;;;;5022430;28;20403;-76
2023/09/06 08:18:08;;;;;;;13.87;4.20;;;34.30;99.90;;;;;;5012735;28;20408;-76
2023/09/06 08:20:34;;;;;;;9.40;3.60;;;34.50;99.90;;;;;;5010277;28;20875;-76
2023/09/06 08:22:59;;;;;;;9.20;4.00;;;34.30;99.90;;;;;;5027787;28;20462;-76
2023/09/06 08:25:25;;;;;;;8.02;3.63;;;35.00;99.90;;;;;;5026314;28;20407;-76
2023/09/06 08:27:51;;;;;;;8.65;3.50;;;35.30;99.90;;;;;;5021237;28;20419;-76
2023/09/06 08:30:18;;;;;;;9.00;3.43;;;35.70;99.90;;;;;;5028290;28;20387;-76
2023/09/06 08:32:46;;;;;;;9.13;4.10;;;35.40;99.90;;;;;;5020755;28;20780;-76
2023/09/06 08:35:12;;;;;;;11.63;4.57;;;34.50;99.90;;;;;;5025253;28;20925;-76
2023/09/06 08:37:38;;;;;;;9.68;4.10;;;34.50;99.90;;;;;;5027024;28;20400;-76
2023/09/06 08:40:07;;;;;;;8.45;3.88;;;34.60;99.90;;;;;;5028659;28;20767;-76
2023/09/06 08:42:34;;;;;;;10.52;3.72;;;34.80;99.90;;;;;;5028810;28;20394;-77
2023/09/06 08:45:01;;;;;;;9.30;3.55;;;35.10;99.90;;;;;;5008910;28;20782;-77
2023/09/06 08:47:28;;;;;;;9.30;4.20;;;35.30;99.90;;;;;;5027808;28;20422;-76
2023/09/06 08:49:54;;;;;;;8.30;3.70;;;35.80;99.90;;;;;;5020012;28;20404;-78
2023/09/06 08:52:20;;;;;;;8.30;3.83;;;36.80;99.90;;;;;;5004029;28;20866;-77
2023/09/06 08:54:48;;;;;;;8.88;4.18;;;37.40;99.90;;;;;;5028876;28;20414;-77
2023/09/06 08:57:14;;;;;;;8.18;3.45;;;36.30;99.90;;;;;;5028825;28;20402;-77
2023/09/06 08:59:41;;;;;;;11.40;4.60;;;36.10;99.90;;;;;;5028893;28;20392;-77
2023/09/06 09:02:12;;;;;;;7.70;3.50;;;36.70;99.90;;;;;;5028794;28;20426;-77
2023/09/06 09:04:42;;;;;;;7.90;3.30;;;36.50;99.90;;;;;;5029715;28;20399;-77
2023/09/06 09:07:13;;;;;;;7.65;3.55;;;36.40;99.90;;;;;;5025818;28;20478;-77
2023/09/06 09:09:58;;;;;;;8.00;3.60;;;36.00;99.90;;;;;;5026105;28;20406;-77
2023/09/06 09:12:29;;;;;;;7.55;3.17;;;36.20;99.90;;;;;;5007152;28;20418;-77
2023/09/06 09:14:56;;;;;;;7.72;3.17;;;36.10;99.90;;;;;;5024686;28;20403;-77
2023/09/06 09:17:23;;;;;;;8.43;3.47;;;36.90;99.90;;;;;;5025751;28;20498;-77
2023/09/06 09:19:54;;;;;;;8.10;3.60;;;37.40;99.90;;;;;;5008736;28;20391;-77
2023/09/06 09:22:31;;;;;;;7.78;3.70;;;37.40;99.90;;;;;;5026679;28;20518;-77
2023/09/06 09:25:10;;;;;;;7.78;3.25;;;37.50;99.90;;;;;;5028289;28;20434;-77
2023/09/06 09:27:37;;;;;;;8.02;3.45;;;37.80;99.90;;;;;;5028807;28;20423;-77
2023/09/06 09:30:04;;;;;;;8.48;3.38;;;37.80;99.90;;;;;;5023956;28;20406;-78
2023/09/06 09:32:32;;;;;;;7.80;4.00;;;38.50;99.90;;;;;;5026186;28;20470;-77
2023/09/06 09:34:58;;;;;;;9.60;4.28;;;38.20;99.90;;;;;;5027476;28;20403;-77
2023/09/06 09:37:29;;;;;;;11.23;3.70;;;37.00;99.90;;;;;;5024843;28;20454;-77
2023/09/06 09:39:55;;;;;;;8.20;3.60;;;36.80;99.90;;;;;;5025892;28;20403;-78
2023/09/06 09:42:21;;;;;;;9.60;4.03;;;36.70;99.90;;;;;;5011003;28;20410;-76
2023/09/06 09:45:00;;;;;;;7.67;3.50;;;36.60;99.90;;;;;;5027751;28;20769;-76
2023/09/06 09:47:28;;;;;;;8.52;3.30;;;36.80;99.90;;;;;;5024352;28;20500;-77
2023/09/06 09:49:55;;;;;;;8.10;3.75;;;37.30;99.90;;;;;;5004329;28;20403;-78
2023/09/06 09:52:24;;;;;;;7.67;3.20;;;36.90;99.90;;;;;;5028517;28;20402;-77
2023/09/06 09:54:51;;;;;;;8.60;3.60;;;36.60;99.90;;;;;;5027558;28;20457;-77
2023/09/06 09:57:21;;;;;;;8.68;3.40;;;36.20;99.90;;;;;;5022690;28;20399;-77
2023/09/06 09:59:50;;;;;;;8.93;3.00;;;36.60;99.90;;;;;;5027778;28;20392;-76
2023/09/06 10:02:16;;;;;;;9.20;4.00;;;36.80;99.90;;;;;;5029225;28;20577;-76
2023/09/06 10:04:43;;;;;;;9.15;3.25;;;36.50;99.90;;;;;;5022841;28;20410;-77
2023/09/06 10:07:11;;;;;;;8.57;3.83;;;36.10;99.90;;;;;;5027384;28;20423;-76
2023/09/06 10:09:40;;;;;;;7.55;3.00;;;36.60;99.90;;;;;;5023228;28;20397;-77
2023/09/06 10:12:09;;;;;;;7.33;3.37;;;36.50;99.90;;;;;;5026306;28;20399;-76
2023/09/06 10:14:40;;;;;;;8.35;3.30;;;36.70;99.90;;;;;;5026034;28;20758;-77
2023/09/06 10:17:07;;;;;;;8.25;4.00;;;36.30;99.90;;;;;;5028046;28;20395;-77
2023/09/06 10:19:33;;;;;;;8.37;3.50;;;35.50;99.90;;;;;;5020118;28;20408;-77
2023/09/06 10:22:01;;;;;;;8.80;3.50;;;35.40;99.90;;;;;;5025880;28;20750;-77
2023/09/06 10:24:32;;;;;;;7.97;3.67;;;35.50;99.90;;;;;;5021325;28;20454;-77
2023/09/06 10:26:58;;;;;;;8.35;3.53;;;35.60;99.90;;;;;;5023603;28;20429;-77
2023/09/06 10:29:24;;;;;;;7.60;3.00;;;35.60;99.90;;;;;;5027013;28;20773;-77
2023/09/06 10:31:53;;;;;;;8.05;2.97;;;36.30;99.90;;;;;;5025154;28;20911;-77
2023/09/06 10:34:20;;;;;;;10.27;3.20;;;36.30;99.90;;;;;;5026352;28;20419;-76
2023/09/06 10:36:53;;;;;;;9.75;4.05;;;36.20;99.90;;;;;;5029434;28;20900;-77
2023/09/06 10:39:24;;;;;;;7.97;3.50;;;36.60;99.90;;;;;;5027786;28;20465;-76
2023/09/06 10:42:08;;;;;;;9.43;4.03;;;35.80;99.90;;;;;;5028797;28;20787;-76
2023/09/06 10:44:56;;;;;;;8.98;3.30;;;35.50;99.90;;;;;;5028468;28;20468;-77
2023/09/06 10:47:30;;;;;;;10.15;3.42;;;34.70;99.90;;;;;;5031688;28;20494;-79
2023/09/06 10:50:08;;;;;;;11.55;3.63;;;33.90;99.90;;;;;;5030519;28;20784;-76
2023/09/06 10:52:51;;;;;;;8.30;3.60;;;33.40;99.90;;;;;;5029462;28;20407;-77
2023/09/06 10:55:21;;;;;;;8.55;3.60;;;33.10;99.90;;;;;;5021352;28;20427;-76
2023/09/06 10:57:51;;;;;;;9.02;3.40;;;33.20;99.90;;;;;;5010313;28;20872;-76
2023/09/06 11:00:19;;;;;;;7.72;3.28;;;33.00;99.90;;;;;;5010743;28;20444;-78
2023/09/06 11:03:07;;;;;;;8.20;3.20;;;33.30;99.90;;;;;;5012897;28;20395;-79
2023/09/06 11:05:42;;;;;;;11.18;3.92;;;33.90;99.90;;;;;;5030604;28;20391;-79
2023/09/06 11:08:08;;;;;;;6.75;2.50;;;34.20;99.90;;;;;;5030716;28;20418;-79
2023/09/06 11:10:37;;;;;;;9.38;4.10;;;34.30;99.90;;;;;;5030224;28;20474;-77
2023/09/06 11:13:11;;;;;;;7.60;2.90;;;34.90;99.90;;;;;;5011915;28;20422;-76
2023/09/06 11:15:37;;;;;;;8.40;3.70;;;34.90;99.90;;;;;;5030480;28;20747;-77
2023/09/06 11:18:03;;;;;;;8.40;3.47;;;34.00;99.90;;;;;;5029951;28;20384;-77
2023/09/06 11:20:31;;;;;;;7.18;3.00;;;33.90;99.90;;;;;;5018693;28;20412;-77
2023/09/06 11:22:58;;;;;;;8.30;3.20;;;33.70;99.90;;;;;;5010874;28;20408;-77
2023/09/06 11:25:26;;;;;;;7.15;2.70;;;33.00;99.90;;;;;;5010742;28;20397;-78
2023/09/06 11:27:55;;;;;;;8.18;3.05;;;32.40;99.90;;;;;;5020448;28;20433;-77
2023/09/06 11:30:23;;;;;;;8.85;3.65;;;31.80;99.90;;;;;;5014405;28;20395;-75
2023/09/06 11:32:50;;;;;;;8.53;3.63;;;31.60;99.90;;;;;;5029676;28;20841;-75
2023/09/06 11:35:19;;;;;;;9.02;3.28;;;31.50;99.90;;;;;;5030149;28;20433;-74
2023/09/06 11:37:50;;;;;;;8.18;3.53;;;31.50;99.90;;;;;;5011539;28;20418;-75
2023/09/06 11:40:20;;;;;;;8.23;3.80;;;31.70;99.90;;;;;;5029677;28;20530;-75
2023/09/06 11:42:53;;;;;;;12.45;3.58;;;31.40;99.90;;;;;;5029258;28;20399;-75
2023/09/06 11:45:20;;;;;;;9.63;3.97;;;31.30;99.90;;;;;;5030482;28;20393;-75
2023/09/06 11:47:46;;;;;;;9.43;3.28;;;31.20;99.90;;;;;;5029792;28;20829;-74
2023/09/06 11:50:15;;;;;;;7.93;3.33;;;31.10;99.90;;;;;;5030100;28;20387;-74
2023/09/06 11:52:49;;;;;;;8.30;3.42;;;31.20;99.90;;;;;;5011424;28;20407;-76
2023/09/06 11:55:18;;;;;;;9.38;4.07;;;31.10;99.90;;;;;;5025071;28;20422;-76
2023/09/06 11:57:57;;;;;;;8.00;3.53;;;31.00;99.90;;;;;;5029598;28;20406;-76
2023/09/06 12:00:35;;;;;;;9.68;3.63;;;30.90;99.90;;;;;;5026885;28;20394;-76
2023/09/06 12:03:07;;;;;;;8.38;4.00;;;30.70;99.90;;;;;;5029791;28;20426;-76
2023/09/06 12:05:35;;;;;;;8.18;3.42;;;30.50;99.90;;;;;;5029896;28;20402;-77
2023/09/06 12:08:01;;;;;;;8.60;3.65;;;30.30;99.90;;;;;;5029485;28;20771;-77
2023/09/06 12:10:28;;;;;;;9.30;3.58;;;30.00;99.90;;;;;;5015773;28;20941;-77
2023/09/06 12:12:56;;;;;;;8.93;3.63;;;30.10;99.90;;;;;;5020584;28;20414;-76
2023/09/06 12:15:25;;;;;;;9.30;3.70;;;30.30;99.90;;;;;;5029839;28;20387;-77
2023/09/06 12:17:51;;;;;;;10.27;3.50;;;30.50;99.90;;;;;;5030172;28;20422;-77
2023/09/06 12:20:22;;;;;;;8.90;3.50;;;30.80;99.90;;;;;;5029250;28;20815;-76
2023/09/06 12:22:49;;;;;;;9.57;3.50;;;30.90;99.90;;;;;;5028717;28;20766;-76
2023/09/06 12:25:15;;;;;;;7.15;3.38;;;30.90;99.90;;;;;;5028334;28;20407;-76
2023/09/06 12:27:45;;;;;;;8.80;3.90;;;30.80;99.90;;;;;;5028647;28;20427;-76
2023/09/06 12:30:11;;;;;;;8.00;3.13;;;30.40;99.90;;;;;;5029327;28;20789;-76
2023/09/06 12:32:39;;;;;;;8.50;3.80;;;30.30;99.90;;;;;;5011749;28;20399;-76
2023/09/06 12:35:07;;;;;;;8.60;3.03;;;30.50;99.90;;;;;;5029389;28;20379;-76
2023/09/06 12:37:36;;;;;;;8.73;3.70;;;30.80;99.90;;;;;;5022873;28;20806;-76
2023/09/06 12:40:13;;;;;;;8.38;3.42;;;30.70;99.90;;;;;;5027456;28;20541;-76
2023/09/06 12:42:46;;;;;;;8.35;3.40;;;30.80;99.90;;;;;;5029432;28;20490;-77
2023/09/06 12:45:19;;;;;;;8.80;3.58;;;30.80;99.90;;;;;;5029631;28;20383;-76
2023/09/06 12:47:44;;;;;;;9.23;3.80;;;30.60;99.90;;;;;;5029633;28;20418;-74
2023/09/06 12:50:10;;;;;;;8.13;3.57;;;31.00;99.90;;;;;;5006384;28;20410;-74